createdAt,value
2023-05-14T00:02:23.995Z,46.08
2023-05-14T00:04:52.441Z,44.65
2023-05-14T00:07:20.500Z,53.92
2023-05-14T00:09:49.744Z,54.92
2023-05-14T00:12:18.129Z,53.20
2023-05-14T00:14:46.262Z,37.92
2023-05-14T00:17:17.099Z,43.15
2023-05-14T00:19:45.499Z,40.25
2023-05-14T00:22:13.660Z,46.25
2023-05-14T00:24:41.838Z,41.72
2023-05-14T00:27:10.157Z,42.55
2023-05-14T00:29:38.456Z,37.40
2023-05-14T00:32:07.112Z,33.75
2023-05-14T00:34:36.290Z,34.80
2023-05-14T00:37:04.364Z,39.65
2023-05-14T00:39:32.778Z,36.60
2023-05-14T00:42:01.176Z,33.53
2023-05-14T00:44:29.611Z,32.65
2023-05-14T00:46:57.956Z,33.03
2023-05-14T00:49:28.902Z,31.40
2023-05-14T00:51:57.461Z,33.53
2023-05-14T00:54:26.456Z,35.95
2023-05-14T00:56:55.598Z,31.85
2023-05-14T00:59:23.801Z,32.05
2023-05-14T01:01:52.229Z,35.00
2023-05-14T01:04:20.767Z,36.13
2023-05-14T01:07:10.224Z,37.20
2023-05-14T01:09:52.886Z,38.70
2023-05-14T01:12:34.122Z,49.13
2023-05-14T01:15:27.185Z,41.55
2023-05-14T01:18:00.791Z,33.65
2023-05-14T01:20:29.085Z,31.80
2023-05-14T01:22:58.580Z,31.45
2023-05-14T01:25:27.319Z,28.55
2023-05-14T01:28:20.328Z,35.78
2023-05-14T01:30:58.342Z,31.80
2023-05-14T01:33:29.963Z,28.08
2023-05-14T01:38:28.015Z,39.08
2023-05-14T01:40:57.269Z,45.30
2023-05-14T01:43:26.075Z,45.47
2023-05-14T01:45:54.529Z,37.40
2023-05-14T01:48:23.151Z,36.30
2023-05-14T01:50:52.160Z,35.08
2023-05-14T01:53:20.406Z,39.80
2023-05-14T01:55:48.790Z,41.63
2023-05-14T01:58:17.133Z,43.38
2023-05-14T02:00:45.419Z,35.47
2023-05-14T02:03:13.649Z,43.15
2023-05-14T02:05:42.024Z,35.08
2023-05-14T02:08:10.315Z,50.83
2023-05-14T02:10:38.750Z,42.22
2023-05-14T02:13:07.142Z,43.40
2023-05-14T02:15:35.267Z,44.70
2023-05-14T02:18:03.771Z,43.60
2023-05-14T02:20:32.060Z,43.80
2023-05-14T02:23:00.539Z,43.95
2023-05-14T02:25:28.865Z,41.40
2023-05-14T02:27:57.095Z,35.70
2023-05-14T02:30:25.630Z,37.40
2023-05-14T02:32:54.269Z,45.17
2023-05-14T02:35:22.760Z,36.85
2023-05-14T02:37:51.230Z,36.58
2023-05-14T02:40:19.424Z,38.35
2023-05-14T02:42:47.770Z,46.05
2023-05-14T02:45:16.253Z,44.72
2023-05-14T02:47:44.571Z,43.20
2023-05-14T02:50:12.862Z,38.72
2023-05-14T02:52:41.220Z,35.50
2023-05-14T02:55:09.911Z,36.95
2023-05-14T02:57:41.185Z,43.75
2023-05-14T03:00:10.001Z,30.17
2023-05-14T03:02:39.251Z,25.77
2023-05-14T03:05:08.453Z,26.13
2023-05-14T03:07:36.513Z,33.28
2023-05-14T03:10:05.018Z,28.52
2023-05-14T03:12:33.278Z,34.22
2023-05-14T03:15:01.624Z,75.85
2023-05-14T03:17:30.038Z,52.97
2023-05-14T03:19:58.228Z,33.97
2023-05-14T03:22:28.150Z,35.33
2023-05-14T03:24:56.481Z,27.27
2023-05-14T03:27:24.733Z,35.30
2023-05-14T03:29:53.027Z,27.15
2023-05-14T03:32:21.437Z,24.17
2023-05-14T03:34:49.552Z,32.58
2023-05-14T03:37:17.870Z,33.53
2023-05-14T03:39:46.110Z,28.08
2023-05-14T03:42:14.439Z,26.67
2023-05-14T03:44:42.608Z,36.85
2023-05-14T03:47:11.008Z,45.30
2023-05-14T03:49:39.192Z,33.15
2023-05-14T03:52:10.215Z,32.15
2023-05-14T03:54:38.525Z,22.25
2023-05-14T03:57:06.667Z,26.40
2023-05-14T03:59:35.056Z,26.52
2023-05-14T04:02:03.149Z,24.42
2023-05-14T04:04:31.466Z,23.73
2023-05-14T04:06:59.919Z,30.38
2023-05-14T04:09:29.764Z,27.20
2023-05-14T04:11:58.259Z,25.70
2023-05-14T04:14:26.461Z,28.75
2023-05-14T04:16:54.796Z,32.10
2023-05-14T04:19:23.050Z,23.90
2023-05-14T04:21:51.233Z,19.08
2023-05-14T04:24:19.533Z,20.63
2023-05-14T04:26:47.727Z,23.35
2023-05-14T04:29:15.889Z,24.23
2023-05-14T04:31:44.672Z,26.45
2023-05-14T04:34:12.980Z,25.05
2023-05-14T04:36:41.115Z,20.05
2023-05-14T04:39:09.422Z,32.65
2023-05-14T04:41:37.432Z,26.52
2023-05-14T04:44:06.006Z,24.50
2023-05-14T04:46:34.384Z,28.92
2023-05-14T04:49:02.743Z,17.70
2023-05-14T04:51:30.934Z,18.92
2023-05-14T04:53:59.098Z,19.52
2023-05-14T04:56:30.057Z,13.10
2023-05-14T04:58:58.215Z,21.20
2023-05-14T05:01:26.486Z,25.75
2023-05-14T05:03:54.818Z,23.58
2023-05-14T05:06:23.155Z,24.23
2023-05-14T05:08:51.299Z,19.48
2023-05-14T05:11:22.343Z,22.40
2023-05-14T05:13:51.477Z,19.90
2023-05-14T05:16:19.717Z,26.67
2023-05-14T05:18:48.088Z,24.98
2023-05-14T05:21:16.248Z,23.00
2023-05-14T05:23:44.495Z,18.52
2023-05-14T05:26:12.642Z,22.75
2023-05-14T05:28:41.043Z,19.60
2023-05-14T05:31:09.228Z,16.58
2023-05-14T05:33:37.404Z,18.92
2023-05-14T05:36:05.855Z,18.35
2023-05-14T05:38:34.231Z,19.95
2023-05-14T05:41:02.384Z,28.48
2023-05-14T05:43:30.521Z,19.73
2023-05-14T05:45:58.626Z,20.80
2023-05-14T05:48:26.888Z,22.60
2023-05-14T05:50:56.906Z,19.83
2023-05-14T05:53:25.186Z,15.27
2023-05-14T05:55:53.328Z,30.48
2023-05-14T05:58:21.690Z,20.92
2023-05-14T06:00:49.821Z,23.00
2023-05-14T06:03:18.113Z,18.83
2023-05-14T06:05:46.467Z,23.27
2023-05-14T06:08:14.770Z,18.85
2023-05-14T06:10:42.900Z,21.77
2023-05-14T06:13:11.090Z,23.05
2023-05-14T06:15:39.350Z,23.80
2023-05-14T06:18:07.673Z,18.25
2023-05-14T06:20:35.824Z,20.17
2023-05-14T06:23:04.055Z,21.45
2023-05-14T06:25:32.267Z,19.27
2023-05-14T06:28:00.644Z,19.85
2023-05-14T06:30:28.886Z,24.42
2023-05-14T06:32:57.306Z,16.63
2023-05-14T06:35:25.489Z,20.75
2023-05-14T06:37:53.738Z,18.73
2023-05-14T06:40:22.495Z,21.20
2023-05-14T06:42:51.210Z,20.48
2023-05-14T06:45:19.654Z,14.70
2023-05-14T06:47:47.975Z,18.60
2023-05-14T06:50:16.339Z,16.90
2023-05-14T06:52:44.503Z,17.25
2023-05-14T06:55:12.827Z,30.30
2023-05-14T06:57:44.019Z,17.90
2023-05-14T07:00:13.114Z,20.08
2023-05-14T07:02:41.394Z,20.33
2023-05-14T07:05:09.987Z,23.38
2023-05-14T07:07:38.213Z,22.10
2023-05-14T07:10:07.164Z,23.52
2023-05-14T07:12:35.430Z,20.63
2023-05-14T07:15:03.799Z,22.40
2023-05-14T07:17:32.019Z,21.20
2023-05-14T07:20:00.355Z,17.77
2023-05-14T07:22:28.701Z,18.30
2023-05-14T07:24:56.806Z,21.17
2023-05-14T07:27:25.208Z,19.70
2023-05-14T07:29:53.404Z,16.73
2023-05-14T07:32:21.491Z,16.00
2023-05-14T07:34:49.857Z,20.23
2023-05-14T07:37:18.093Z,20.92
2023-05-14T07:39:46.322Z,14.75
2023-05-14T07:42:22.074Z,18.75
2023-05-14T07:44:53.179Z,15.65
2023-05-14T07:47:21.608Z,21.25
2023-05-14T07:49:49.704Z,19.20
2023-05-14T07:52:18.063Z,25.90
2023-05-14T07:54:46.612Z,20.95
2023-05-14T07:57:15.813Z,18.45
2023-05-14T07:59:44.040Z,18.77
2023-05-14T08:02:12.390Z,13.88
2023-05-14T08:04:40.749Z,13.93
2023-05-14T08:07:09.214Z,15.77
2023-05-14T08:09:40.427Z,16.65
2023-05-14T08:12:08.979Z,16.77
2023-05-14T08:14:37.354Z,16.23
2023-05-14T08:17:05.946Z,14.57
2023-05-14T08:19:34.361Z,18.73
2023-05-14T08:22:02.599Z,11.95
2023-05-14T08:24:30.838Z,8.77
2023-05-14T08:26:59.487Z,13.25
2023-05-14T08:29:27.741Z,16.90
2023-05-14T08:31:56.193Z,11.00
2023-05-14T08:34:27.957Z,13.00
2023-05-14T08:36:56.267Z,14.85
2023-05-14T08:39:24.451Z,9.80
2023-05-14T08:41:53.211Z,9.35
2023-05-14T08:44:28.032Z,20.00
2023-05-14T08:46:56.770Z,9.00
2023-05-14T08:49:37.340Z,25.90
2023-05-14T08:52:06.002Z,16.90
2023-05-14T08:54:34.623Z,7.68
2023-05-14T08:57:05.404Z,11.45
2023-05-14T08:59:33.796Z,6.25
2023-05-14T09:02:03.602Z,16.60
2023-05-14T09:04:32.924Z,20.25
2023-05-14T09:07:02.649Z,11.50
2023-05-14T09:11:28.096Z,12.45
2023-05-14T09:13:56.541Z,14.18
2023-05-14T09:16:32.917Z,12.63
2023-05-14T09:19:01.275Z,12.02
2023-05-14T09:21:32.210Z,18.70
2023-05-14T09:24:01.951Z,15.90
2023-05-14T09:26:33.255Z,10.77
2023-05-14T09:29:02.810Z,8.77
2023-05-14T09:31:32.122Z,14.67
2023-05-14T09:44:10.562Z,11.23
2023-05-14T09:46:38.944Z,9.60
2023-05-14T09:49:07.028Z,7.88
2023-05-14T09:51:35.300Z,14.77
2023-05-14T09:54:05.767Z,9.45
2023-05-14T09:56:35.149Z,19.27
2023-05-14T09:59:04.228Z,11.77
2023-05-14T10:01:33.251Z,9.82
2023-05-14T10:04:04.542Z,12.55
2023-05-14T10:06:37.323Z,11.77
2023-05-14T10:09:11.985Z,8.63
2023-05-14T10:11:47.931Z,15.65
2023-05-14T10:14:25.706Z,11.25
2023-05-14T10:16:56.678Z,6.57
2023-05-14T10:19:34.161Z,8.85
2023-05-14T10:22:08.468Z,12.23
2023-05-14T10:24:38.161Z,12.32
2023-05-14T10:27:06.858Z,10.48
2023-05-14T10:29:36.570Z,11.70
2023-05-14T10:32:07.234Z,9.63
2023-05-14T10:34:44.498Z,11.52
2023-05-14T10:37:28.523Z,9.73
2023-05-14T10:40:05.749Z,18.55
2023-05-14T10:42:36.321Z,8.13
2023-05-14T10:45:13.693Z,11.70
2023-05-14T10:47:47.399Z,7.78
2023-05-14T10:50:17.310Z,16.77
2023-05-14T10:52:46.453Z,5.68
2023-05-14T10:55:16.878Z,6.00
2023-05-14T10:57:46.882Z,13.48
2023-05-14T11:00:16.164Z,8.10
2023-05-14T11:02:46.179Z,8.93
2023-05-14T11:05:16.342Z,10.90
2023-05-14T11:07:49.731Z,10.05
2023-05-14T11:10:20.540Z,11.20
2023-05-14T11:12:50.615Z,10.15
2023-05-14T11:15:23.515Z,11.93
2023-05-14T11:17:53.681Z,9.55
2023-05-14T11:20:22.384Z,13.00
2023-05-14T11:22:51.183Z,9.32
2023-05-14T11:25:19.504Z,7.13
2023-05-14T11:27:48.288Z,14.32
2023-05-14T11:30:20.871Z,8.07
2023-05-14T11:32:50.823Z,15.05
2023-05-14T11:35:23.780Z,12.38
2023-05-14T11:37:52.968Z,9.80
2023-05-14T11:40:21.784Z,16.55
2023-05-14T11:42:52.436Z,11.75
2023-05-14T11:45:29.693Z,7.53
2023-05-14T11:47:58.033Z,10.43
2023-05-14T11:50:26.642Z,15.98
2023-05-14T11:52:58.089Z,14.23
2023-05-14T11:57:54.530Z,12.35
2023-05-14T12:00:23.101Z,19.20
2023-05-14T12:02:52.144Z,8.50
2023-05-14T12:05:20.989Z,16.75
2023-05-14T12:07:49.226Z,8.48
2023-05-14T12:10:17.448Z,13.32
2023-05-14T12:12:48.111Z,9.10
2023-05-14T12:15:17.739Z,7.35
2023-05-14T12:17:55.118Z,6.75
2023-05-14T12:20:25.704Z,11.90
2023-05-14T12:22:54.196Z,12.30
2023-05-14T12:25:22.514Z,9.48
2023-05-14T12:27:51.076Z,15.43
2023-05-14T12:30:21.613Z,6.65
2023-05-14T12:32:50.440Z,11.35
2023-05-14T12:35:18.859Z,13.23
2023-05-14T12:37:47.160Z,15.70
2023-05-14T12:40:15.487Z,17.80
2023-05-14T12:42:43.884Z,11.43
2023-05-14T12:45:12.618Z,12.25
2023-05-14T12:47:41.155Z,14.30
2023-05-14T12:50:09.752Z,12.75
2023-05-14T12:52:39.760Z,7.85
2023-05-14T12:55:09.482Z,17.85
2023-05-14T12:57:39.446Z,16.15
2023-05-14T13:00:09.886Z,13.77
2023-05-14T13:02:42.923Z,18.20
2023-05-14T13:05:14.971Z,20.45
2023-05-14T13:07:43.358Z,15.73
2023-05-14T13:10:11.901Z,18.88
2023-05-14T13:12:40.400Z,26.38
2023-05-14T13:15:09.073Z,21.80
2023-05-14T13:17:37.703Z,17.02
2023-05-14T13:20:06.720Z,15.75
2023-05-14T13:22:34.849Z,16.08
2023-05-14T13:25:03.552Z,21.98
2023-05-14T13:27:31.814Z,16.25
2023-05-14T13:30:00.183Z,34.85
2023-05-14T13:32:28.308Z,20.52
2023-05-14T13:34:56.805Z,16.80
2023-05-14T13:37:25.735Z,14.98
2023-05-14T13:39:53.834Z,20.85
2023-05-14T13:42:22.101Z,13.48
2023-05-14T13:44:50.885Z,16.00
2023-05-14T13:47:19.122Z,10.98
2023-05-14T13:49:47.395Z,13.30
2023-05-14T13:52:15.576Z,13.10
2023-05-14T13:54:43.965Z,16.63
2023-05-14T13:57:12.310Z,11.32
2023-05-14T13:59:40.709Z,18.85
2023-05-14T14:02:09.057Z,12.85
2023-05-14T14:04:37.663Z,10.48
2023-05-14T14:07:06.021Z,13.52
2023-05-14T14:09:34.302Z,11.35
2023-05-14T14:12:04.835Z,12.55
2023-05-14T14:14:33.199Z,18.37
2023-05-14T14:17:01.322Z,16.15
2023-05-14T14:19:29.632Z,17.50
2023-05-14T14:21:58.283Z,9.80
2023-05-14T14:24:26.513Z,21.05
2023-05-14T14:26:54.785Z,27.98
2023-05-14T14:29:22.991Z,19.10
2023-05-14T14:31:51.184Z,15.38
2023-05-14T14:34:19.528Z,16.95
2023-05-14T14:36:47.658Z,19.25
2023-05-14T14:39:15.885Z,16.90
2023-05-14T14:41:44.067Z,18.10
2023-05-14T14:44:12.726Z,25.40
2023-05-14T14:46:40.810Z,22.90
2023-05-14T14:49:09.353Z,21.67
2023-05-14T14:51:37.635Z,58.13
2023-05-14T14:54:05.965Z,70.03
2023-05-14T14:56:34.848Z,23.20
2023-05-14T14:59:03.028Z,46.47
2023-05-14T15:01:31.488Z,45.58
2023-05-14T15:03:59.760Z,26.42
2023-05-14T15:06:28.038Z,19.55
2023-05-14T15:08:56.137Z,11.48
2023-05-14T15:11:30.761Z,28.95
2023-05-14T15:13:59.092Z,14.65
2023-05-14T15:16:34.510Z,18.85
2023-05-14T15:19:03.121Z,16.02
2023-05-14T15:21:31.350Z,21.38
2023-05-14T15:23:59.743Z,21.65
2023-05-14T15:26:27.837Z,15.95
2023-05-14T15:28:56.574Z,17.67
2023-05-14T15:31:24.925Z,22.83
2023-05-14T15:33:54.184Z,17.35
2023-05-14T15:36:22.601Z,17.80
2023-05-14T15:38:51.248Z,14.38
2023-05-14T15:41:19.499Z,12.20
2023-05-14T15:43:56.375Z,14.18
2023-05-14T15:46:24.902Z,20.60
2023-05-14T15:48:53.024Z,16.42
2023-05-14T15:51:21.760Z,23.33
2023-05-14T15:53:50.726Z,13.27
2023-05-14T15:56:19.100Z,16.65
2023-05-14T15:58:47.210Z,23.70
2023-05-14T16:01:15.625Z,19.38
2023-05-14T16:03:44.027Z,21.08
2023-05-14T16:06:12.467Z,19.15
2023-05-14T16:08:40.608Z,24.92
2023-05-14T16:11:08.904Z,12.63
2023-05-14T16:13:37.125Z,22.35
2023-05-14T16:16:05.889Z,19.05
2023-05-14T16:18:34.602Z,20.98
2023-05-14T16:21:02.989Z,17.23
2023-05-14T16:23:31.375Z,13.25
2023-05-14T16:25:59.746Z,18.33
2023-05-14T16:28:28.322Z,21.33
2023-05-14T16:30:56.695Z,17.98
2023-05-14T16:33:25.010Z,22.70
2023-05-14T16:35:53.389Z,24.38
2023-05-14T16:38:21.625Z,22.30
2023-05-14T16:40:50.092Z,21.88
2023-05-14T16:43:18.718Z,18.38
2023-05-14T16:45:47.108Z,27.30
2023-05-14T16:48:15.392Z,18.55
2023-05-14T16:50:43.866Z,24.58
2023-05-14T16:53:11.969Z,20.15
2023-05-14T17:00:50.783Z,17.85
2023-05-14T17:03:18.909Z,18.70
2023-05-14T17:05:47.400Z,26.02
2023-05-14T17:08:15.775Z,26.35
2023-05-14T17:10:44.018Z,24.65
2023-05-14T17:13:12.241Z,24.02
2023-05-14T17:15:40.744Z,15.40
2023-05-14T17:18:09.235Z,32.15
2023-05-14T17:20:37.707Z,20.90
2023-05-14T17:23:06.241Z,25.73
2023-05-14T17:25:34.584Z,25.52
2023-05-14T17:28:02.746Z,39.13
2023-05-14T17:30:31.169Z,41.38
2023-05-14T17:32:59.420Z,22.02
2023-05-14T17:35:28.077Z,41.47
2023-05-14T17:37:57.579Z,22.10
2023-05-14T17:40:26.811Z,40.78
2023-05-14T17:42:55.100Z,47.97
2023-05-14T17:45:25.082Z,23.27
2023-05-14T17:47:53.910Z,20.10
2023-05-14T17:50:22.195Z,45.80
2023-05-14T17:52:50.429Z,44.53
2023-05-14T17:55:18.948Z,44.85
2023-05-14T17:57:47.685Z,47.45
2023-05-14T18:00:16.026Z,34.80
2023-05-14T18:02:44.486Z,56.60
2023-05-14T18:05:12.832Z,49.05
2023-05-14T18:07:44.233Z,71.38
2023-05-14T18:10:12.446Z,82.75
2023-05-14T18:12:40.669Z,65.45
2023-05-14T18:15:09.245Z,40.30
2023-05-14T18:17:38.003Z,56.05
2023-05-14T18:20:07.642Z,89.95
2023-05-14T18:22:36.092Z,65.32
2023-05-14T18:25:04.754Z,87.70
2023-05-14T18:27:33.165Z,109.97
2023-05-14T18:30:01.323Z,57.55
2023-05-14T18:32:29.977Z,92.55
2023-05-14T18:34:58.371Z,109.28
2023-05-14T18:37:26.782Z,133.57
2023-05-14T18:39:54.863Z,89.93
2023-05-14T18:42:23.360Z,84.43
2023-05-14T18:44:51.896Z,99.60
2023-05-14T18:47:20.438Z,68.05
2023-05-14T18:49:48.657Z,50.08
2023-05-14T18:52:17.286Z,92.18
2023-05-14T18:54:45.785Z,64.55
2023-05-14T18:57:23.141Z,71.82
2023-05-14T18:59:51.520Z,107.60
2023-05-14T19:02:19.905Z,144.18
2023-05-14T19:04:52.623Z,86.55
2023-05-14T19:07:24.570Z,50.20
2023-05-14T19:09:53.525Z,84.65
2023-05-14T19:12:21.848Z,129.95
2023-05-14T19:14:50.149Z,160.75
2023-05-14T19:17:20.487Z,155.15
2023-05-14T19:19:49.120Z,81.53
2023-05-14T19:22:17.716Z,63.70
2023-05-14T19:24:46.024Z,66.95
2023-05-14T19:27:14.270Z,106.50
2023-05-14T19:29:43.044Z,57.78
2023-05-14T19:32:11.484Z,47.13
2023-05-14T19:34:39.897Z,49.58
2023-05-14T19:37:08.220Z,71.68
2023-05-14T19:39:36.470Z,70.50
2023-05-14T19:42:04.863Z,37.25
2023-05-14T19:44:33.211Z,49.13
2023-05-14T19:47:01.600Z,126.10
2023-05-14T19:49:29.735Z,44.72
2023-05-14T19:51:58.086Z,34.67
2023-05-14T19:54:26.375Z,39.33
2023-05-14T19:56:54.817Z,37.40
2023-05-14T19:59:23.115Z,26.63
2023-05-14T20:01:51.779Z,21.85
2023-05-14T20:04:20.101Z,24.55
2023-05-14T20:06:48.632Z,28.67
2023-05-14T20:09:17.043Z,22.35
2023-05-14T20:11:45.398Z,24.00
2023-05-14T20:14:13.706Z,18.75
2023-05-14T20:16:42.362Z,20.65
2023-05-14T20:19:10.660Z,31.08
2023-05-14T20:21:41.823Z,19.02
2023-05-14T20:24:10.210Z,28.00
2023-05-14T20:26:38.406Z,13.50
2023-05-14T20:32:08.244Z,9.80
2023-05-14T20:37:05.085Z,4.75
2023-05-14T20:39:33.712Z,4.18
2023-05-14T20:42:02.209Z,20.48
2023-05-14T20:44:30.484Z,15.55
2023-05-14T20:46:58.942Z,20.45
2023-05-14T20:49:27.200Z,20.90
2023-05-14T20:51:55.659Z,15.98
2023-05-14T20:54:24.046Z,14.07
2023-05-14T20:56:52.469Z,15.02
2023-05-14T20:59:20.777Z,8.95
2023-05-14T21:01:49.080Z,8.30
2023-05-14T21:04:18.680Z,7.45
2023-05-14T21:06:47.828Z,5.60
2023-05-14T21:09:16.351Z,6.38
2023-05-14T21:11:44.661Z,11.48
2023-05-14T21:14:12.894Z,7.88
2023-05-14T21:16:41.179Z,5.70
2023-05-14T21:19:09.783Z,5.90
2023-05-14T21:21:40.818Z,10.73
2023-05-14T21:24:09.356Z,4.90
2023-05-14T21:26:38.066Z,6.57
2023-05-14T21:29:06.430Z,8.35
2023-05-14T21:31:34.740Z,11.05
2023-05-14T21:34:03.141Z,18.88
2023-05-14T21:36:31.402Z,16.15
2023-05-14T21:38:59.764Z,23.10
2023-05-14T21:41:27.977Z,14.15
2023-05-14T21:43:56.364Z,11.88
2023-05-14T21:46:24.750Z,9.60
2023-05-14T21:48:53.320Z,19.23
2023-05-14T21:51:21.525Z,17.45
2023-05-14T21:53:49.634Z,12.98
2023-05-14T21:56:17.942Z,7.40
2023-05-14T21:58:46.213Z,9.23
2023-05-14T22:01:15.156Z,11.52
2023-05-14T22:03:43.486Z,5.03
2023-05-14T22:06:11.887Z,6.15
2023-05-14T22:08:40.298Z,12.02
2023-05-14T22:11:08.597Z,7.30
2023-05-14T22:13:37.111Z,13.20
2023-05-14T22:16:12.700Z,11.63
2023-05-14T22:18:42.239Z,8.07
2023-05-14T22:21:10.460Z,4.47
2023-05-14T22:23:38.659Z,7.53
2023-05-14T22:26:07.192Z,7.97
2023-05-14T22:28:35.377Z,4.72
2023-05-14T22:31:03.754Z,10.82
2023-05-14T22:33:32.888Z,12.07
2023-05-14T22:36:01.020Z,7.60
2023-05-14T22:38:29.476Z,4.03
2023-05-14T22:40:57.936Z,6.40
2023-05-14T22:43:26.253Z,6.80
2023-05-14T22:45:54.466Z,12.90
2023-05-14T22:48:22.884Z,7.88
2023-05-14T22:50:51.079Z,12.20
2023-05-14T22:53:19.288Z,6.85
2023-05-14T22:55:47.727Z,7.47
2023-05-14T22:58:15.807Z,9.57
2023-05-14T23:00:44.145Z,9.43
2023-05-14T23:03:12.779Z,5.50
2023-05-14T23:05:41.004Z,6.03
2023-05-14T23:08:09.331Z,6.57
2023-05-14T23:10:37.759Z,8.73
2023-05-14T23:13:05.882Z,30.25
2023-05-14T23:15:34.292Z,11.98
2023-05-14T23:18:02.827Z,19.33
2023-05-14T23:20:31.091Z,9.68
2023-05-14T23:22:59.231Z,11.63
2023-05-14T23:25:27.580Z,11.90
2023-05-14T23:27:55.753Z,6.13
2023-05-14T23:30:23.963Z,9.05
2023-05-14T23:32:52.989Z,6.53
2023-05-14T23:35:21.117Z,8.65
2023-05-14T23:37:49.443Z,8.80
2023-05-14T23:40:18.622Z,5.90
2023-05-14T23:42:46.883Z,5.28
2023-05-14T23:45:15.204Z,3.10
2023-05-14T23:47:43.721Z,5.60
2023-05-14T23:50:11.966Z,3.00
2023-05-14T23:52:40.254Z,3.22
2023-05-14T23:55:08.995Z,7.68
2023-05-14T23:57:37.301Z,3.83
